Table Rock, Pennsylvania
Current Conditions -  °F | °C
As of 2:53 PM on Sunday 21 Dec 2014 (Local Time) from KRYT Reporting Station
Clear Clear  
Wind Chill: 38°   Ceiling: Unl
Heat Index: 38°   Visibility: 10mi
Dew Point: 22°   Wind: 0mph
Humidity: 53%   Direction: NA
Pressure: 30.24"   Gusts: NA
Location:  39.942°N, 77.3061°W
Report Text: KRYT 211953Z AUTO 00000KT 10SM CLR 03/M06 A3024 RMK AO2 SLP254 T00331056 $
Loading
Personal Weather Stations






























Interactive Weather Map New forecast layout! Learn more

10-Day Weather Forecast

Advertisements
Track Severe Weather on mobile